This is the latest recevied weather packets stored in our database for station/object OE6ACM-14. If no packets are shown the sender has not sent any weather packets the latest 10 day(s).
| Time | Temp. | Humidity | Pressure | Rain* | Wind** | Luminosity | Snow |
|---|---|---|---|---|---|---|---|
| 1777878844 | 31.11° C | 24% | 927.1 hPa | - | - | - | - |
| 1777878544 | 32.22° C | 22% | 927.1 hPa | - | - | - | - |
| 1777878244 | 33.89° C | 23% | 927.1 hPa | - | - | - | - |
| 1777877944 | 32.78° C | 25% | 927.1 hPa | - | - | - | - |
| 1777877644 | 28.89° C | 29% | 927.2 hPa | - | - | - | - |
| 1777877344 | 27.78° C | 29% | 927.2 hPa | - | - | - | - |
| 1777877044 | 26.67° C | 31% | 927.3 hPa | - | - | - | - |
| 1777876744 | 21.67° C | 39% | 927.4 hPa | - | - | - | - |
| 1777876444 | 18.33° C | 43% | 927.6 hPa | - | - | - | - |
| 1777876144 | 18.89° C | 41% | 927.5 hPa | - | - | - | - |
| 1777875844 | 20° C | 40% | 927.4 hPa | - | - | - | - |
| 1777875544 | 19.44° C | 40% | 927.5 hPa | - | - | - | - |
| 1777875244 | 26.11° C | 32% | 927.3 hPa | - | - | - | - |
| 1777874944 | 25.56° C | 33% | 927.3 hPa | - | - | - | - |
| 1777874644 | 22.78° C | 38% | 927.5 hPa | - | - | - | - |
| 1777874344 | 17.78° C | 50% | 927.6 hPa | - | - | - | - |
| 1777874044 | 15.56° C | 54% | 927.8 hPa | - | - | - | - |
| 1777873744 | 12.22° C | 61% | 927.8 hPa | - | - | - | - |
| 1777873444 | 10.56° C | 63% | 927.8 hPa | - | - | - | - |
| 1777873144 | 10° C | 64% | 927.9 hPa | - | - | - | - |
| 1777872844 | 9.44° C | 65% | 927.9 hPa | - | - | - | - |
| 1777872544 | 9.44° C | 65% | 927.9 hPa | - | - | - | - |
| 1777872244 | 8.89° C | 67% | 927.9 hPa | - | - | - | - |
| 1777871944 | 8.89° C | 66% | 927.9 hPa | - | - | - | - |
| 1777871644 | 8.89° C | 67% | 927.8 hPa | - | - | - | - |
* Rain since midnight (hover to see other rain measurements)
** Current wind speed in m/s (hover to see current wind gust speed)